Latest Coastal Weather Observations for Milingimbi

IDD60701

Issued at 1:15 pm CST Thursday 23 October 2014 (issued every 10 minutes, with the page automatically refreshed every 10 minutes)

About coastal observations | Map of coastal stations | Coastal observations for NT | Marine services | Other Formats
Station Details ID: 014404 Name: MILINGIMBI AIRPORT Lat: -12.09 Lon: 134.89 Height: 15.0 m
Data from the previous 72 hours. | See also: Recent months at Milingimbi
Date/Time
CST
Temp

°C
Wind Pressure Rain
since 9am
mm
Weather Cloud Vis
km
Sea
Height
m
Swell
Dir
 
Speed
knots
Gust
knots
hPa Trend Height
m
Period
s
Dir
23/01:00pm 32.9 ENE 7 11 1012.1 - 0.0 - - - - - - -
23/12:30pm 31.7 ENE 7 12 1012.7 - 0.0 - - - - - - -
23/12:00pm 31.7 E 8 13 1013.1 - 0.0 - - - - - - -
23/11:30am 31.5 E 7 11 1013.6 - 0.0 - - - - - - -
23/11:00am 30.3 E 8 13 1014.0 - 0.0 - - - - - - -
23/10:30am 30.5 ESE 8 13 1014.3 - 0.0 - - - - - - -
23/10:00am 28.9 E 8 11 1014.5 - 0.0 - - - - - - -
23/09:30am 28.5 E 7 13 1014.8 - 0.0 - - - - - - -
23/09:00am 27.8 E 8 13 1014.8 - 0.0 - - - - - - -
23/08:30am 27.7 E 7 13 1014.9 - 0.0 - - - - - - -
23/08:00am 26.8 E 8 11 1014.7 - 0.0 - - - - - - -
23/07:30am 26.1 E 6 12 1014.5 - 0.0 - - - - - - -
23/07:00am 24.0 SE 5 7 1014.2 - 0.0 - - - - - - -
23/06:30am 23.8 SE 5 7 1013.9 - 0.0 - - - - - - -
23/06:00am 24.3 E 6 11 1013.6 - 0.0 - - - - - - -
23/05:30am 23.1 SE 7 9 1013.2 - 0.0 - - - - - - -
23/05:00am 22.4 SE 5 6 1013.0 - 0.0 - - - - - - -
23/04:30am 22.5 SE 3 5 1012.5 - 0.0 - - - - - - -
23/04:00am 22.6 SE 3 4 1012.4 - 0.0 - - - - - - -
23/03:30am 22.7 CALM 0 0 1012.4 - 0.0 - - - - - - -
23/03:00am 23.3 SE 3 4 1012.4 - 0.0 - - - - - - -
23/02:30am 23.8 SE 4 5 1012.8 - 0.0 - - - - - - -
23/02:00am 24.9 SE 5 6 1013.0 - 0.0 - - - - - - -
23/01:30am 25.6 ESE 6 8 1013.3 - 0.0 - - - - - - -
23/01:00am 26.0 ESE 7 11 1013.5 - 0.0 - - - - - - -
23/12:30am 26.3 E 7 11 1013.8 - 0.0 - - - - - - -
23/12:00am 26.7 E 7 12 1013.8 - 0.0 - - - - - - -
 
Date/Time
CST
Temp

°C
Wind Pressure Rain
since 9am
mm
Weather Cloud Vis
km
Sea
Height
m
Swell
Dir
 
Speed
knots
Gust
knots
hPa Trend Height
m
Period
s
Dir
22/11:30pm 26.7 E 7 14 1014.1 - 0.0 - - - - - - -
22/11:00pm 26.8 E 6 9 1014.2 - 0.0 - - - - - - -
22/10:30pm 26.9 E 6 9 1014.2 - 0.0 - - - - - - -
22/10:00pm 27.2 E 7 12 1014.1 - 0.0 - - - - - - -
22/09:30pm 27.3 E 8 14 1013.8 - 0.0 - - - - - - -
22/09:00pm 27.4 E 8 13 1013.3 - 0.0 - - - - - - -
22/08:30pm 27.6 ENE 7 13 1013.0 - 0.0 - - - - - - -
22/08:00pm 27.6 ENE 8 12 1012.8 - 0.0 - - - - - - -
22/07:30pm 27.5 ENE 7 12 1012.5 - 0.0 - - - - - - -
22/07:00pm 27.6 ENE 7 13 1012.0 - 0.0 - - - - - - -
22/06:30pm 27.8 NE 6 11 1011.6 - 0.0 - - - - - - -
22/06:00pm 28.1 NE 6 11 1011.2 - 0.0 - - - - - - -
22/05:30pm 28.9 NE 8 13 1011.1 - 0.0 - - - - - - -
22/05:00pm 29.1 NNE 8 13 1010.8 - 0.0 - - - - - - -
22/04:30pm 30.0 NE 9 17 1010.8 - 0.0 - - - - - - -
22/04:00pm 30.4 NNE 9 13 1010.9 - 0.0 - - - - - - -
22/03:30pm 30.7 NE 9 15 1010.9 - 0.0 - - - - - - -
22/03:00pm 30.8 NNE 8 16 1011.1 - 0.0 - - - - - - -
22/02:30pm 30.8 N 9 14 1011.4 - 0.0 - - - - - - -
22/02:00pm 31.3 NNE 9 16 1011.8 - 0.0 - - - - - - -
22/01:30pm 31.6 ENE 10 17 1012.3 - 0.0 - - - - - - -
22/01:00pm 31.3 NE 8 14 1012.9 - 0.0 - - - - - - -
22/12:30pm 31.6 NE 8 13 1013.4 - 0.0 - - - - - - -
22/12:00pm 30.7 ENE 6 13 1014.0 - 0.0 - - - - - - -
22/11:30am 30.0 NE 7 13 1014.7 - 0.0 - - - - - - -
22/11:00am 29.7 E 6 11 1015.0 - 0.0 - - - - - - -
22/10:30am 29.4 ENE 6 10 1015.3 - 0.0 - - - - - - -
22/10:00am 29.2 ESE 5 9 1015.4 - 0.0 - - - - - - -
22/09:30am 28.9 ESE 6 11 1015.5 - 0.0 - - - - - - -
22/09:00am 27.8 SSE 8 11 1015.4 - 0.0 - - - - - - -
22/08:30am 27.3 SE 8 12 1015.3 - 0.0 - - - - - - -
22/08:00am 26.3 S 8 11 1015.1 - 0.0 - - - - - - -
22/07:30am 25.5 SSE 7 11 1014.7 - 0.0 - - - - - - -
22/07:00am 25.1 ESE 3 5 1014.2 - 0.0 - - - - - - -
22/06:30am 23.0 CALM 0 3 1014.0 - 0.0 - - - - - - -
22/06:00am 23.5 E 3 4 1013.4 - 0.0 - - - - - - -
22/05:30am 24.1 ENE 3 5 1013.2 - 0.0 - - - - - - -
22/05:00am 24.6 ESE 4 5 1013.2 - 0.0 - - - - - - -
22/04:30am 24.9 ENE 4 7 1012.9 - 0.0 - - - - - - -
22/04:00am 25.0 ENE 4 6 1012.9 - 0.0 - - - - - - -
22/03:30am 24.9 E 3 4 1013.0 - 0.0 - - - - - - -
22/03:00am 25.1 ESE 1 6 1013.0 - 0.0 - - - - - - -
22/02:30am 25.4 ESE 3 5 1013.3 - 0.0 - - - - - - -
22/02:00am 25.8 E 4 6 1013.6 - 0.0 - - - - - - -
22/01:30am 26.1 ESE 5 8 1013.8 - 0.0 - - - - - - -
22/01:00am 26.3 E 4 6 1014.1 - 0.0 - - - - - - -
22/12:30am 26.5 E 5 10 1014.4 - 0.0 - - - - - - -
22/12:00am 26.8 E 5 8 1014.5 - 0.0 - - - - - - -
 
Date/Time
CST
Temp

°C
Wind Pressure Rain
since 9am
mm
Weather Cloud Vis
km
Sea
Height
m
Swell
Dir
 
Speed
knots
Gust
knots
hPa Trend Height
m
Period
s
Dir
21/11:30pm 27.1 E 6 8 1015.0 - 0.0 - - - - - - -
21/11:00pm 27.1 ENE 6 11 1014.9 - 0.0 - - - - - - -
21/10:30pm 27.2 E 6 9 1015.0 - 0.0 - - - - - - -
21/10:00pm 27.4 ENE 6 12 1014.8 - 0.0 - - - - - - -
21/09:30pm 27.7 ENE 7 12 1014.5 - 0.0 - - - - - - -
21/09:00pm 27.6 ENE 6 11 1014.1 - 0.0 - - - - - - -
21/08:30pm 27.5 NE 6 10 1013.7 - 0.0 - - - - - - -
21/08:00pm 27.5 ENE 7 11 1013.4 - 0.0 - - - - - - -
21/07:30pm 27.6 NE 7 12 1013.2 - 0.0 - - - - - - -
21/07:00pm 27.5 NE 6 9 1012.9 - 0.0 - - - - - - -
21/06:30pm 27.7 NE 6 11 1012.5 - 0.0 - - - - - - -
21/06:00pm 28.3 NNE 7 12 1012.2 - 0.0 - - - - - - -
21/05:30pm 28.8 NNE 6 12 1012.2 - 0.0 - - - - - - -
21/05:00pm 29.1 N 8 13 1012.0 - 0.0 - - - - - - -
21/04:30pm 29.3 NNE 7 14 1011.8 - 0.0 - - - - - - -
21/04:00pm 29.8 NNE 8 13 1012.0 - 0.0 - - - - - - -
21/03:30pm 30.5 N 8 13 1012.1 - 0.0 - - - - - - -
21/03:00pm 30.6 N 7 14 1012.3 - 0.0 - - - - - - -
21/02:30pm 30.8 N 8 15 1012.4 - 0.0 - - - - - - -
21/02:00pm 31.8 NNE 8 13 1012.8 - 0.0 - - - - - - -
21/01:30pm 31.5 ENE 8 15 1013.4 - 0.0 - - - - - - -
21/01:00pm 32.0 ENE 7 12 1013.9 - 0.0 - - - - - - -
21/12:30pm 31.0 ENE 8 12 1014.5 - 0.0 - - - - - - -
21/12:00pm 30.2 NE 8 12 1014.9 - 0.0 - - - - - - -
21/11:30am 30.2 NE 7 11 1015.3 - 0.0 - - - - - - -
21/11:00am 30.5 ENE 8 12 1015.6 - 0.0 - - - - - - -
21/10:30am 29.8 E 7 12 1015.6 - 0.0 - - - - - - -
21/10:00am 29.3 E 7 12 1015.7 - 0.0 - - - - - - -
21/09:30am 29.1 E 6 9 1015.8 - 0.0 - - - - - - -
21/09:00am 28.5 ESE 7 11 1015.9 - 0.0 - - - - - - -
21/08:30am 28.5 ESE 8 11 1015.9 - 0.0 - - - - - - -
21/08:00am 27.4 E 6 10 1015.4 - 0.0 - - - - - - -
21/07:30am 26.2 E 5 9 1015.2 - 0.0 - - - - - - -
21/07:00am 24.5 ENE 5 7 1014.7 - 0.0 - - - - - - -
21/06:30am 21.9 E 1 4 1014.3 - 0.0 - - - - - - -
21/06:00am 21.7 E 3 4 1013.9 - 0.0 - - - - - - -
21/05:30am 22.0 E 1 4 1013.9 - 0.0 - - - - - - -
21/05:00am 22.9 E 3 5 1013.6 - 0.0 - - - - - - -
21/04:30am 22.3 NE 3 5 1013.5 - 0.0 - - - - - - -
21/04:00am 23.7 SE 4 6 1013.8 - 0.0 - - - - - - -
21/03:30am 24.1 E 5 8 1013.8 - 0.0 - - - - - - -
21/03:00am 24.0 ESE 5 7 1013.7 - 0.0 - - - - - - -
21/02:30am 24.5 SE 7 11 1013.9 - 0.0 - - - - - - -
21/02:00am 24.1 ESE 4 8 1014.1 - 0.0 - - - - - - -
21/01:30am 24.6 SSE 8 11 1014.0 - 0.0 - - - - - - -
21/01:00am 25.1 SE 7 9 1014.3 - 0.0 - - - - - - -
21/12:30am 25.8 SE 8 12 1014.6 - 0.0 - - - - - - -
21/12:00am 26.0 SE 7 9 1014.5 - 0.0 - - - - - - -
 
Date/Time
CST
Temp

°C
Wind Pressure Rain
since 9am
mm
Weather Cloud Vis
km
Sea
Height
m
Swell
Dir
 
Speed
knots
Gust
knots
hPa Trend Height
m
Period
s
Dir
20/11:30pm 26.9 SE 7 12 1014.8 - 0.0 - - - - - - -
20/11:00pm 27.3 ESE 7 12 1014.9 - 0.0 - - - - - - -
20/10:30pm 27.3 E 6 9 1014.6 - 0.0 - - - - - - -
20/10:00pm 27.6 E 7 11 1014.5 - 0.0 - - - - - - -
20/09:30pm 27.6 E 6 11 1014.0 - 0.0 - - - - - - -
20/09:00pm 27.5 E 7 12 1013.4 - 0.0 - - - - - - -
20/08:30pm 27.5 ENE 7 11 1013.2 - 0.0 - - - - - - -
20/08:00pm 27.6 ENE 8 15 1012.7 - 0.0 - - - - - - -
20/07:30pm 27.6 ENE 8 11 1012.3 - 0.0 - - - - - - -
20/07:00pm 27.6 NE 7 13 1011.8 - 0.0 - - - - - - -
20/06:30pm 27.9 NE 8 13 1011.7 - 0.0 - - - - - - -
20/06:00pm 28.3 NE 6 12 1011.2 - 0.0 - - - - - - -
20/05:30pm 28.8 NE 9 15 1010.9 - 0.0 - - - - - - -
20/05:00pm 29.3 NNE 8 13 1010.7 - 0.0 - - - - - - -
20/04:30pm 29.8 NE 8 15 1010.8 - 0.0 - - - - - - -
20/04:00pm 29.8 NNE 8 14 1010.9 - 0.0 - - - - - - -
20/03:30pm 30.1 N 9 16 1010.9 - 0.0 - - - - - - -
20/03:00pm 30.4 NNE 8 14 1011.2 - 0.0 - - - - - - -
20/02:30pm 30.8 N 8 13 1011.7 - 0.0 - - - - - - -
20/02:00pm 30.7 N 9 16 1012.0 - 0.0 - - - - - - -
20/01:30pm 31.4 NNE 7 12 1012.4 - 0.0 - - - - - - -

Other Formats:

Comma delimited format used in spreadsheet applications
http://www.bom.gov.au/fwo/IDD60701/IDD60701.94140.axf

JavaScript Object Notation format (JSON) in row-major order
http://www.bom.gov.au/fwo/IDD60701/IDD60701.94140.json